Time;durP1;ratioP1;P1;durP2;ratioP2;P2;SDS_P1;SDS_P2;PMS_P1;PMS_P2;Temp;Humidity;BMP_temperature;BMP_pressure;BME280_temperature;BME280_humidity;BME280_pressure;Samples;Min_cycle;Max_cycle;Signal;HPM_P1;HPM_P2
2023/05/09 00:00:05;;;;;;;6.85;4.70;;;18.30;99.90;;;;;;5045229;28;20224;-33
2023/05/09 00:02:35;;;;;;;6.70;5.68;;;18.30;99.90;;;;;;5045481;28;20558;-33
2023/05/09 00:05:03;;;;;;;6.38;4.78;;;18.30;99.90;;;;;;5044397;28;20249;-33
2023/05/09 00:07:30;;;;;;;7.28;4.95;;;18.30;99.90;;;;;;5045285;28;20228;-33
2023/05/09 00:09:58;;;;;;;6.68;5.03;;;18.30;99.90;;;;;;5043956;28;20299;-33
2023/05/09 00:12:27;;;;;;;5.40;4.90;;;18.30;99.90;;;;;;5043963;28;20216;-33
2023/05/09 00:14:56;;;;;;;6.38;4.97;;;18.30;99.90;;;;;;5027747;28;20202;-33
2023/05/09 00:17:28;;;;;;;6.60;4.78;;;18.30;99.90;;;;;;5045313;28;20216;-33
2023/05/09 00:20:00;;;;;;;7.63;5.10;;;18.20;99.90;;;;;;5045075;28;20212;-33
2023/05/09 00:22:29;;;;;;;5.82;5.10;;;18.20;99.90;;;;;;5023922;28;20224;-35
2023/05/09 00:24:56;;;;;;;7.30;5.75;;;18.20;99.90;;;;;;5023856;28;20252;-35
2023/05/09 00:27:29;;;;;;;6.65;4.70;;;18.20;99.90;;;;;;5023926;28;20209;-35
2023/05/09 00:29:58;;;;;;;7.57;5.30;;;18.20;99.90;;;;;;5025028;28;20735;-35
2023/05/09 00:32:29;;;;;;;5.75;4.53;;;18.20;99.90;;;;;;5025310;28;20201;-35
2023/05/09 00:34:57;;;;;;;7.03;5.63;;;18.10;99.90;;;;;;5023726;28;20249;-35
2023/05/09 00:37:30;;;;;;;6.80;5.53;;;18.20;99.90;;;;;;5026869;28;20315;-35
2023/05/09 00:39:57;;;;;;;6.63;4.80;;;18.10;99.90;;;;;;5028252;28;20212;-35
2023/05/09 00:42:24;;;;;;;6.00;4.80;;;18.10;99.90;;;;;;5026927;28;20727;-35
2023/05/09 00:44:51;;;;;;;6.97;5.05;;;18.10;99.90;;;;;;5027131;28;20694;-35
2023/05/09 00:47:22;;;;;;;5.70;5.10;;;18.10;99.90;;;;;;5028096;28;20292;-35
2023/05/09 00:49:50;;;;;;;4.90;4.40;;;18.10;99.90;;;;;;5028408;28;20663;-35
2023/05/09 00:52:22;;;;;;;7.72;5.05;;;18.10;99.90;;;;;;5026884;28;20211;-35
2023/05/09 00:54:53;;;;;;;7.97;4.90;;;18.10;99.90;;;;;;5027283;28;20493;-35
2023/05/09 00:57:22;;;;;;;5.07;4.05;;;18.10;99.90;;;;;;5026940;28;20762;-35
2023/05/09 00:59:49;;;;;;;5.72;4.50;;;18.00;99.90;;;;;;5043399;28;20564;-36
2023/05/09 01:02:17;;;;;;;6.97;4.63;;;18.00;99.90;;;;;;5039309;28;20742;-36
2023/05/09 01:04:48;;;;;;;7.15;4.78;;;18.00;99.90;;;;;;5031822;28;20209;-36
2023/05/09 01:07:47;;;;;;;5.97;4.78;;;18.00;99.90;;;;;;5043213;28;20295;-36
2023/05/09 01:10:24;;;;;;;4.93;4.45;;;18.00;99.90;;;;;;5047740;28;20201;-35
2023/05/09 01:13:20;;;;;;;5.57;4.40;;;17.90;99.90;;;;;;5046891;28;20508;-36
2023/05/09 01:15:53;;;;;;;4.72;4.25;;;17.90;99.90;;;;;;5047320;28;20584;-36
2023/05/09 01:18:25;;;;;;;5.22;4.05;;;18.00;99.90;;;;;;5033555;28;20669;-35
2023/05/09 01:21:07;;;;;;;6.43;4.70;;;17.90;99.90;;;;;;5045900;28;20287;-36
2023/05/09 01:23:43;;;;;;;5.53;4.40;;;17.90;99.90;;;;;;5047357;28;20230;-36
2023/05/09 01:26:28;;;;;;;5.32;4.55;;;17.90;99.90;;;;;;5047477;28;20204;-36
2023/05/09 01:29:16;;;;;;;6.18;4.47;;;17.90;99.90;;;;;;5039971;28;20207;-36
2023/05/09 01:31:48;;;;;;;5.75;4.13;;;17.90;99.90;;;;;;5024856;28;20871;-35
2023/05/09 01:34:19;;;;;;;8.77;4.32;;;17.90;99.90;;;;;;5037724;28;20227;-36
2023/05/09 01:36:51;;;;;;;5.90;4.32;;;17.90;99.90;;;;;;5047293;28;20621;-36
2023/05/09 01:39:19;;;;;;;6.07;4.78;;;17.90;99.90;;;;;;5047335;28;20216;-36
2023/05/09 01:41:48;;;;;;;5.95;4.70;;;17.80;99.90;;;;;;5047943;28;20200;-35
2023/05/09 01:44:16;;;;;;;5.00;4.20;;;17.80;99.90;;;;;;5047078;28;20204;-35
2023/05/09 01:46:47;;;;;;;5.35;3.90;;;17.80;99.90;;;;;;5031178;28;20200;-36
2023/05/09 01:49:19;;;;;;;5.15;4.28;;;17.80;99.90;;;;;;5025760;28;20213;-36
2023/05/09 01:51:48;;;;;;;6.50;4.57;;;17.80;99.90;;;;;;5025621;28;20279;-35
2023/05/09 01:54:17;;;;;;;4.45;3.97;;;17.80;99.90;;;;;;5025495;28;20722;-35
2023/05/09 01:56:50;;;;;;;4.68;3.90;;;17.80;99.90;;;;;;5026857;28;20294;-35
2023/05/09 01:59:22;;;;;;;5.35;4.60;;;17.80;99.90;;;;;;5027048;28;20208;-35
2023/05/09 02:01:51;;;;;;;4.32;3.92;;;17.90;99.90;;;;;;5026201;28;20203;-35
2023/05/09 02:04:18;;;;;;;6.25;4.18;;;17.90;99.90;;;;;;5028012;28;20240;-35
2023/05/09 02:06:50;;;;;;;4.70;4.10;;;17.80;99.90;;;;;;5027604;28;20203;-35
2023/05/09 02:09:18;;;;;;;7.10;4.20;;;17.80;99.90;;;;;;5026266;28;20676;-35
2023/05/09 02:11:48;;;;;;;6.30;4.50;;;17.80;99.90;;;;;;5025912;28;20251;-35
2023/05/09 02:14:22;;;;;;;6.60;4.25;;;17.80;99.90;;;;;;5025445;28;20224;-35
2023/05/09 02:16:50;;;;;;;6.45;4.43;;;17.80;99.90;;;;;;5026787;28;20243;-35
2023/05/09 02:19:19;;;;;;;5.35;4.10;;;17.80;99.90;;;;;;5025630;28;20434;-35
2023/05/09 02:21:51;;;;;;;6.40;4.57;;;17.80;99.90;;;;;;5040274;28;20295;-35
2023/05/09 02:24:18;;;;;;;6.38;4.30;;;17.80;99.90;;;;;;5046296;28;20259;-35
2023/05/09 02:26:48;;;;;;;6.28;4.22;;;17.80;99.90;;;;;;5044834;28;20908;-35
2023/05/09 02:29:18;;;;;;;4.85;4.10;;;17.80;99.90;;;;;;5044619;28;20722;-35
2023/05/09 02:31:49;;;;;;;5.20;3.97;;;17.80;99.90;;;;;;5044732;28;20303;-35
2023/05/09 02:34:17;;;;;;;6.00;4.30;;;17.80;99.90;;;;;;5045103;28;20208;-35
2023/05/09 02:36:48;;;;;;;4.47;3.97;;;17.80;99.90;;;;;;5038710;28;20209;-35
2023/05/09 02:39:18;;;;;;;6.55;4.72;;;17.80;99.90;;;;;;5026642;28;20360;-35
2023/05/09 02:41:50;;;;;;;5.53;4.05;;;17.80;99.90;;;;;;5008318;28;20209;-35
2023/05/09 02:44:18;;;;;;;7.05;4.63;;;17.80;99.90;;;;;;5025871;28;20290;-35
2023/05/09 02:46:45;;;;;;;6.93;4.82;;;17.80;99.90;;;;;;5024712;28;20196;-35
2023/05/09 02:49:12;;;;;;;4.88;4.03;;;17.70;99.90;;;;;;5025982;28;20244;-35
2023/05/09 02:51:55;;;;;;;5.95;4.10;;;17.80;99.90;;;;;;5024576;28;20219;-35
2023/05/09 02:54:22;;;;;;;6.88;4.10;;;17.70;99.90;;;;;;5026580;28;20267;-35
2023/05/09 02:56:49;;;;;;;4.22;3.83;;;17.70;99.90;;;;;;5024333;28;20263;-36
2023/05/09 02:59:20;;;;;;;5.93;4.20;;;17.70;99.90;;;;;;5024128;28;20275;-35
2023/05/09 03:01:47;;;;;;;7.63;4.20;;;17.70;99.90;;;;;;5024209;28;20213;-35
2023/05/09 03:04:15;;;;;;;5.00;4.43;;;17.70;99.90;;;;;;5025906;28;20255;-35
2023/05/09 03:06:45;;;;;;;6.47;4.07;;;17.70;99.90;;;;;;5024310;28;20295;-35
2023/05/09 03:09:12;;;;;;;5.95;4.45;;;17.70;99.90;;;;;;5025686;28;20225;-35
2023/05/09 03:11:44;;;;;;;5.22;4.30;;;17.70;99.90;;;;;;5026329;28;20208;-35
2023/05/09 03:14:13;;;;;;;4.78;4.10;;;17.70;99.90;;;;;;5025836;28;20232;-35
2023/05/09 03:16:41;;;;;;;6.57;4.50;;;17.70;99.90;;;;;;5025886;28;20215;-35
2023/05/09 03:19:10;;;;;;;5.03;3.80;;;17.70;99.90;;;;;;5026956;28;20209;-35
2023/05/09 03:21:42;;;;;;;5.05;4.32;;;17.70;99.90;;;;;;5045519;28;20201;-35
2023/05/09 03:24:12;;;;;;;6.85;4.00;;;17.70;99.90;;;;;;5043930;28;20278;-35
2023/05/09 03:26:41;;;;;;;11.68;4.93;;;17.60;99.90;;;;;;5045253;28;20315;-35
2023/05/09 03:29:08;;;;;;;4.97;3.83;;;17.70;99.90;;;;;;5044471;28;20299;-35
2023/05/09 03:31:36;;;;;;;5.80;4.40;;;17.70;99.90;;;;;;5043773;28;20219;-35
2023/05/09 03:34:05;;;;;;;5.20;4.13;;;17.70;99.90;;;;;;5045059;28;20625;-35
2023/05/09 03:36:32;;;;;;;6.15;3.85;;;17.70;99.90;;;;;;5045424;28;20250;-35
2023/05/09 03:39:02;;;;;;;4.43;3.97;;;17.70;99.90;;;;;;5044167;28;20291;-35
2023/05/09 03:41:34;;;;;;;5.35;3.75;;;17.70;99.90;;;;;;5045242;28;20220;-35
2023/05/09 03:44:05;;;;;;;5.07;3.80;;;17.70;99.90;;;;;;5045173;28;20224;-35
2023/05/09 03:46:36;;;;;;;4.95;3.97;;;17.70;99.90;;;;;;5025692;28;20215;-35
2023/05/09 03:49:04;;;;;;;5.28;4.25;;;17.70;99.90;;;;;;5007746;28;20308;-35
2023/05/09 03:51:31;;;;;;;7.45;4.32;;;17.70;99.90;;;;;;5025550;28;20229;-35
2023/05/09 03:54:01;;;;;;;4.82;4.20;;;17.70;99.90;;;;;;5025594;28;20324;-35
2023/05/09 03:56:28;;;;;;;4.82;4.15;;;17.70;99.90;;;;;;5025387;28;20327;-35
2023/05/09 03:59:00;;;;;;;5.32;3.92;;;17.70;99.90;;;;;;5025547;28;20694;-35
2023/05/09 04:01:27;;;;;;;5.30;4.45;;;17.70;99.90;;;;;;5026905;28;20204;-35
2023/05/09 04:03:56;;;;;;;6.03;4.78;;;17.70;99.90;;;;;;5043458;28;20254;-35
2023/05/09 04:06:25;;;;;;;5.72;4.47;;;17.70;99.90;;;;;;5043904;28;20215;-35
2023/05/09 04:08:55;;;;;;;5.28;4.20;;;17.70;99.90;;;;;;5045422;28;20215;-35
2023/05/09 04:11:22;;;;;;;7.65;4.30;;;17.70;99.90;;;;;;5046402;28;20310;-35
2023/05/09 04:13:53;;;;;;;6.82;4.40;;;17.60;99.90;;;;;;5049417;28;20239;-35
2023/05/09 04:16:23;;;;;;;6.05;4.35;;;17.70;99.90;;;;;;5049036;28;20212;-35
2023/05/09 04:18:50;;;;;;;6.28;4.90;;;17.70;99.90;;;;;;5040411;28;20211;-35
2023/05/09 04:21:17;;;;;;;6.10;4.60;;;17.70;99.90;;;;;;5048203;28;20323;-35
2023/05/09 04:23:49;;;;;;;6.13;4.40;;;17.70;99.90;;;;;;5047783;28;20231;-35
2023/05/09 04:26:17;;;;;;;7.00;4.68;;;17.70;99.90;;;;;;5049231;28;20263;-35
2023/05/09 04:28:48;;;;;;;6.43;4.70;;;17.80;99.90;;;;;;5048722;28;20204;-35
2023/05/09 04:31:23;;;;;;;5.55;4.68;;;17.80;99.90;;;;;;5048510;28;20614;-35
2023/05/09 04:33:51;;;;;;;7.82;4.40;;;17.80;99.90;;;;;;5048495;28;20257;-35
2023/05/09 04:36:21;;;;;;;5.57;4.53;;;17.80;99.90;;;;;;5046086;28;20259;-35
2023/05/09 04:38:52;;;;;;;6.57;4.80;;;17.80;99.90;;;;;;5048493;28;20200;-35
2023/05/09 04:41:22;;;;;;;5.60;4.68;;;17.80;99.90;;;;;;5047311;28;20196;-35
2023/05/09 04:43:51;;;;;;;5.57;4.97;;;17.90;99.90;;;;;;5048758;28;20726;-35
2023/05/09 04:46:18;;;;;;;5.65;4.53;;;17.90;99.90;;;;;;5030418;28;20212;-35
2023/05/09 04:48:45;;;;;;;5.22;4.55;;;17.90;99.90;;;;;;5046587;28;20674;-35
2023/05/09 04:51:12;;;;;;;5.55;4.45;;;17.90;99.90;;;;;;5046470;28;20210;-35
2023/05/09 04:53:41;;;;;;;6.88;4.90;;;18.00;99.90;;;;;;5033063;28;20216;-35
2023/05/09 04:56:11;;;;;;;5.80;4.75;;;18.00;99.90;;;;;;5026152;28;20236;-35
2023/05/09 04:58:39;;;;;;;5.60;4.70;;;18.00;99.90;;;;;;5027766;28;20232;-35
2023/05/09 05:01:08;;;;;;;6.90;4.85;;;18.00;99.90;;;;;;5026346;28;20211;-35
2023/05/09 05:03:35;;;;;;;6.55;5.13;;;18.00;99.90;;;;;;5028279;28;20642;-35
2023/05/09 05:06:05;;;;;;;5.18;4.57;;;18.00;99.90;;;;;;5009711;28;20622;-35
2023/05/09 05:08:37;;;;;;;5.38;4.40;;;18.00;99.90;;;;;;5026008;28;20209;-35
2023/05/09 05:11:04;;;;;;;5.13;4.18;;;18.10;99.90;;;;;;5023552;28;20324;-35
2023/05/09 05:13:31;;;;;;;5.60;4.43;;;18.10;99.90;;;;;;5027762;28;20217;-35
2023/05/09 05:15:59;;;;;;;4.97;4.50;;;18.10;99.90;;;;;;5026585;28;20197;-35
2023/05/09 05:18:26;;;;;;;6.88;4.63;;;18.10;99.90;;;;;;5031787;28;20196;-35
2023/05/09 05:20:58;;;;;;;6.55;5.38;;;18.10;99.90;;;;;;5046442;28;20243;-35
2023/05/09 05:23:27;;;;;;;8.23;4.97;;;18.10;99.90;;;;;;5045665;28;20231;-35
2023/05/09 05:25:55;;;;;;;5.97;4.90;;;18.20;99.90;;;;;;5047940;28;20593;-35
2023/05/09 05:28:24;;;;;;;5.25;4.75;;;18.20;99.90;;;;;;5030444;28;20251;-35
2023/05/09 05:30:51;;;;;;;7.30;4.72;;;18.20;99.90;;;;;;5047787;28;20202;-35
2023/05/09 05:33:19;;;;;;;8.20;4.88;;;18.20;99.90;;;;;;5046238;28;20226;-35
2023/05/09 05:35:51;;;;;;;7.60;4.60;;;18.30;99.90;;;;;;5047712;28;20781;-35
2023/05/09 05:38:23;;;;;;;13.27;4.80;;;18.30;99.90;;;;;;5047758;28;20306;-35
2023/05/09 05:40:52;;;;;;;5.72;4.72;;;18.30;99.90;;;;;;5047989;28;20230;-36
2023/05/09 05:43:19;;;;;;;6.68;4.75;;;18.30;99.90;;;;;;5046819;28;20275;-36
2023/05/09 05:45:46;;;;;;;5.95;5.10;;;18.30;99.90;;;;;;5046432;28;20242;-35
2023/05/09 05:48:13;;;;;;;7.15;5.20;;;18.30;99.90;;;;;;5047302;28;20203;-36
2023/05/09 05:50:43;;;;;;;6.32;5.05;;;18.30;99.90;;;;;;5046026;28;20196;-35
2023/05/09 05:53:15;;;;;;;6.25;5.32;;;18.30;99.90;;;;;;5046039;28;20224;-35
2023/05/09 05:55:44;;;;;;;5.90;4.70;;;18.30;99.90;;;;;;5047361;28;20200;-35
2023/05/09 05:58:14;;;;;;;5.78;5.28;;;18.40;99.90;;;;;;5047535;28;20609;-35
2023/05/09 06:00:46;;;;;;;6.25;5.65;;;18.30;99.90;;;;;;5046103;28;20204;-35
2023/05/09 06:03:16;;;;;;;9.07;5.30;;;18.30;99.90;;;;;;5029427;28;20641;-35
2023/05/09 06:05:45;;;;;;;7.07;5.38;;;18.30;99.90;;;;;;5046855;28;20200;-35
2023/05/09 06:08:14;;;;;;;5.60;4.82;;;18.30;99.90;;;;;;5045460;28;20192;-35
2023/05/09 06:10:44;;;;;;;11.52;5.75;;;18.30;99.90;;;;;;5047150;28;20217;-35
2023/05/09 06:13:13;;;;;;;7.10;5.55;;;18.30;99.90;;;;;;5046702;28;20743;-35
2023/05/09 06:15:43;;;;;;;6.43;5.82;;;18.30;99.90;;;;;;5045397;28;20262;-35
2023/05/09 06:18:10;;;;;;;6.78;5.38;;;18.30;99.90;;;;;;5038898;28;20740;-35
2023/05/09 06:20:40;;;;;;;6.80;5.90;;;18.30;99.90;;;;;;5045034;28;20267;-35
2023/05/09 06:23:07;;;;;;;7.35;5.75;;;18.30;99.90;;;;;;5046373;28;20219;-35
2023/05/09 06:25:39;;;;;;;6.40;5.80;;;18.30;99.90;;;;;;5029517;28;20234;-36
2023/05/09 06:28:06;;;;;;;8.05;6.40;;;18.30;99.90;;;;;;5046728;28;20204;-35
2023/05/09 06:30:33;;;;;;;6.47;5.20;;;18.30;99.90;;;;;;5046683;28;20602;-35
2023/05/09 06:33:03;;;;;;;8.15;5.70;;;18.40;99.90;;;;;;5046633;28;20262;-35
2023/05/09 06:35:30;;;;;;;6.25;5.43;;;18.40;99.90;;;;;;5043649;28;20590;-36
2023/05/09 06:37:59;;;;;;;5.90;5.40;;;18.40;99.90;;;;;;5046299;28;20208;-33
2023/05/09 06:40:29;;;;;;;6.38;5.38;;;18.40;99.90;;;;;;5044446;28;20757;-34
2023/05/09 06:42:56;;;;;;;6.25;5.60;;;18.40;99.90;;;;;;5044649;28;20235;-34
2023/05/09 06:45:27;;;;;;;7.03;5.80;;;18.40;99.90;;;;;;5043979;28;20572;-34
2023/05/09 06:47:57;;;;;;;6.53;5.80;;;18.50;99.90;;;;;;5045450;28;20196;-34
2023/05/09 06:50:24;;;;;;;7.35;5.57;;;18.50;99.90;;;;;;5045544;28;20228;-34
2023/05/09 06:52:54;;;;;;;7.30;5.75;;;18.50;99.90;;;;;;5044457;28;20293;-33
2023/05/09 06:55:21;;;;;;;6.40;5.80;;;18.60;99.90;;;;;;5045939;28;20215;-33
2023/05/09 06:57:48;;;;;;;8.23;5.78;;;18.60;99.90;;;;;;5043651;28;20342;-33
2023/05/09 07:00:18;;;;;;;6.88;6.10;;;18.60;99.90;;;;;;5027313;28;20707;-33
2023/05/09 07:02:45;;;;;;;8.35;5.88;;;18.70;99.90;;;;;;5045769;28;20536;-33
2023/05/09 07:05:13;;;;;;;6.68;5.97;;;18.70;99.90;;;;;;5045054;28;20236;-33
2023/05/09 07:07:43;;;;;;;18.08;6.55;;;18.70;99.90;;;;;;5045713;28;20204;-34
2023/05/09 07:10:12;;;;;;;6.15;5.40;;;18.70;99.90;;;;;;5044537;28;20222;-34
2023/05/09 07:12:40;;;;;;;7.35;5.90;;;18.80;99.90;;;;;;5027424;28;20610;-33
2023/05/09 07:15:11;;;;;;;5.90;5.35;;;18.80;99.90;;;;;;5044038;28;20780;-33
2023/05/09 07:17:41;;;;;;;6.05;5.45;;;18.80;99.90;;;;;;5044988;28;20524;-32
2023/05/09 07:20:09;;;;;;;11.73;5.60;;;18.90;99.90;;;;;;5044738;28;20643;-33
2023/05/09 07:22:38;;;;;;;10.25;6.00;;;18.90;99.90;;;;;;5043527;28;20244;-33
2023/05/09 07:25:07;;;;;;;6.35;5.63;;;18.90;99.90;;;;;;5042770;28;20235;-33
2023/05/09 07:27:37;;;;;;;5.32;4.82;;;18.90;99.90;;;;;;5044651;28;20192;-33
2023/05/09 07:30:06;;;;;;;5.82;5.07;;;19.00;99.90;;;;;;5044723;28;20236;-32
2023/05/09 07:32:33;;;;;;;5.93;4.32;;;19.00;99.90;;;;;;5042930;28;20283;-33
2023/05/09 07:35:02;;;;;;;7.40;5.30;;;19.00;99.90;;;;;;5044494;28;20238;-33
2023/05/09 07:37:31;;;;;;;5.28;4.50;;;19.00;99.90;;;;;;5043309;28;20295;-32
2023/05/09 07:39:59;;;;;;;7.47;5.20;;;19.00;99.90;;;;;;5023140;28;20588;-33
2023/05/09 07:42:31;;;;;;;5.40;4.82;;;19.00;99.90;;;;;;5024999;28;20204;-33
2023/05/09 07:44:59;;;;;;;5.53;4.70;;;19.00;99.90;;;;;;5024507;28;20294;-33
2023/05/09 07:47:26;;;;;;;6.15;4.70;;;19.00;99.90;;;;;;5024426;28;20193;-33
2023/05/09 07:49:53;;;;;;;5.82;4.60;;;19.00;99.90;;;;;;5022962;28;20197;-33
2023/05/09 07:52:20;;;;;;;5.45;4.80;;;19.00;99.90;;;;;;5024731;28;20197;-33
2023/05/09 07:54:48;;;;;;;7.68;4.82;;;19.00;99.90;;;;;;5024439;28;20270;-33
2023/05/09 07:57:22;;;;;;;6.07;4.78;;;19.00;99.90;;;;;;5024283;28;20278;-33
2023/05/09 07:59:49;;;;;;;6.75;4.95;;;19.00;99.90;;;;;;5023267;28;20209;-34
2023/05/09 08:02:17;;;;;;;6.72;5.35;;;19.00;99.90;;;;;;5022687;28;20667;-33
2023/05/09 08:04:47;;;;;;;5.88;5.28;;;19.00;99.90;;;;;;5024842;28;20307;-33
2023/05/09 08:07:15;;;;;;;5.50;5.00;;;19.00;99.90;;;;;;5007339;28;20231;-33
2023/05/09 08:09:45;;;;;;;7.00;5.30;;;19.00;99.90;;;;;;5024691;28;20197;-33
2023/05/09 08:12:12;;;;;;;7.38;5.60;;;19.00;99.90;;;;;;5022685;28;20551;-33
2023/05/09 08:14:40;;;;;;;5.75;5.03;;;19.10;99.90;;;;;;5023082;28;20216;-33
2023/05/09 08:17:09;;;;;;;6.05;5.55;;;19.10;99.90;;;;;;5025655;28;20204;-33
2023/05/09 08:19:41;;;;;;;11.02;6.43;;;19.10;99.90;;;;;;5042548;28;20417;-34
2023/05/09 08:22:19;;;;;;;6.95;5.82;;;19.10;99.90;;;;;;5044342;28;20227;-33
2023/05/09 08:24:48;;;;;;;6.38;5.30;;;19.10;99.90;;;;;;5042717;28;20315;-33
2023/05/09 08:27:16;;;;;;;5.65;4.95;;;19.10;99.90;;;;;;5043978;28;20196;-33
2023/05/09 08:29:43;;;;;;;5.35;4.85;;;19.20;99.90;;;;;;5043141;28;20563;-33
2023/05/09 08:32:15;;;;;;;5.65;5.15;;;19.20;99.90;;;;;;5042382;28;20204;-33
2023/05/09 08:34:49;;;;;;;5.00;4.50;;;19.20;99.90;;;;;;5043198;28;20792;-33
2023/05/09 08:37:19;;;;;;;6.78;5.45;;;19.20;99.90;;;;;;5042620;28;20200;-33
2023/05/09 08:39:49;;;;;;;6.05;5.45;;;19.20;99.90;;;;;;5044320;28;20212;-33
2023/05/09 08:42:21;;;;;;;6.28;5.38;;;19.20;99.90;;;;;;5042344;28;20239;-33
2023/05/09 08:44:54;;;;;;;6.65;4.70;;;19.20;99.90;;;;;;5043732;28;20657;-33
2023/05/09 08:47:24;;;;;;;5.30;4.75;;;19.20;99.90;;;;;;5044682;28;20204;-33
2023/05/09 08:49:52;;;;;;;6.13;4.50;;;19.20;99.90;;;;;;5044159;28;20343;-33
2023/05/09 08:52:31;;;;;;;6.03;4.70;;;19.20;99.90;;;;;;5043435;28;20278;-33
2023/05/09 08:55:01;;;;;;;6.03;4.30;;;19.20;99.90;;;;;;5042417;28;20300;-33
2023/05/09 08:57:28;;;;;;;5.60;5.07;;;19.20;99.90;;;;;;5044679;28;20236;-33
2023/05/09 08:59:59;;;;;;;5.10;4.07;;;19.20;99.90;;;;;;5047126;28;20303;-33
2023/05/09 09:02:29;;;;;;;4.25;3.85;;;19.20;99.90;;;;;;5047353;28;20208;-33
2023/05/09 09:04:59;;;;;;;6.18;4.70;;;19.20;99.90;;;;;;5047313;28;20580;-33
2023/05/09 09:07:32;;;;;;;4.18;3.78;;;19.20;99.90;;;;;;5046362;28;20295;-33
2023/05/09 09:10:09;;;;;;;4.15;3.72;;;19.20;99.90;;;;;;5047600;28;20200;-33
2023/05/09 09:12:39;;;;;;;4.70;3.40;;;19.20;99.90;;;;;;5047303;28;20198;-33
2023/05/09 09:15:16;;;;;;;5.22;4.20;;;19.20;99.90;;;;;;5048160;28;20204;-33
2023/05/09 09:17:49;;;;;;;3.83;3.45;;;19.20;99.90;;;;;;5047670;28;20216;-33
2023/05/09 09:20:20;;;;;;;5.47;4.13;;;19.10;99.90;;;;;;5046144;28;20196;-33
2023/05/09 09:22:51;;;;;;;4.97;3.65;;;19.10;99.90;;;;;;5046022;28;20212;-33
2023/05/09 09:25:18;;;;;;;3.78;3.40;;;19.10;99.90;;;;;;5046379;28;20232;-33
2023/05/09 09:27:48;;;;;;;8.20;3.92;;;19.10;99.90;;;;;;5047502;28;20199;-33
2023/05/09 09:30:22;;;;;;;3.83;3.50;;;19.10;99.90;;;;;;5047245;28;20200;-33
2023/05/09 09:32:52;;;;;;;4.05;3.25;;;19.10;99.90;;;;;;5047364;28;20244;-33
2023/05/09 09:35:19;;;;;;;3.30;3.00;;;19.10;99.90;;;;;;5045663;28;20720;-33
2023/05/09 09:37:59;;;;;;;5.68;2.78;;;19.10;99.90;;;;;;5046002;28;20279;-33
2023/05/09 09:40:26;;;;;;;3.83;2.42;;;19.10;99.90;;;;;;5046013;28;20236;-33
2023/05/09 09:42:53;;;;;;;2.78;2.58;;;19.10;99.90;;;;;;5046299;28;20294;-33
2023/05/09 09:45:21;;;;;;;3.08;2.78;;;19.00;99.90;;;;;;5046857;28;20220;-34
2023/05/09 09:47:53;;;;;;;3.72;2.45;;;19.00;99.90;;;;;;5047301;28;20204;-34
2023/05/09 09:50:25;;;;;;;3.08;2.55;;;19.00;99.90;;;;;;5047064;28;20223;-34
2023/05/09 09:52:54;;;;;;;4.60;2.88;;;18.90;99.90;;;;;;5029346;28;20710;-34
2023/05/09 09:55:30;;;;;;;4.88;2.50;;;18.90;99.90;;;;;;5046998;28;20201;-34
2023/05/09 09:58:00;;;;;;;3.53;2.65;;;18.90;99.90;;;;;;5046354;28;20235;-33
2023/05/09 10:00:34;;;;;;;3.97;2.80;;;18.90;99.90;;;;;;5026040;28;20213;-34
2023/05/09 10:03:03;;;;;;;2.85;2.58;;;18.90;99.90;;;;;;5024637;28;20208;-34
2023/05/09 10:05:33;;;;;;;4.45;2.80;;;18.90;99.90;;;;;;5026283;28;20316;-34
2023/05/09 10:08:06;;;;;;;4.90;2.47;;;18.80;99.90;;;;;;5024736;28;20201;-32
2023/05/09 10:10:36;;;;;;;2.78;2.42;;;18.80;99.90;;;;;;5024940;28;20201;-32
2023/05/09 10:13:09;;;;;;;4.25;2.47;;;18.80;99.90;;;;;;5025961;28;20208;-32
2023/05/09 10:15:37;;;;;;;4.57;2.50;;;18.80;99.90;;;;;;5024469;28;20228;-32
2023/05/09 10:18:25;;;;;;;3.67;2.25;;;18.80;99.90;;;;;;5045281;28;20316;-32
2023/05/09 10:20:55;;;;;;;2.70;2.40;;;18.80;99.90;;;;;;5046505;28;20195;-32
2023/05/09 10:23:24;;;;;;;3.85;2.83;;;18.80;99.90;;;;;;5046508;28;20226;-32
2023/05/09 10:26:06;;;;;;;4.45;2.63;;;18.80;99.90;;;;;;5044426;28;20227;-32
2023/05/09 10:28:37;;;;;;;2.80;2.38;;;18.80;99.90;;;;;;5046026;28;20200;-32
2023/05/09 10:31:30;;;;;;;3.58;2.55;;;18.80;99.90;;;;;;5044760;28;20188;-32
2023/05/09 10:34:04;;;;;;;5.35;2.58;;;18.80;99.90;;;;;;5043574;28;20216;-32
2023/05/09 10:36:35;;;;;;;3.22;2.47;;;18.80;99.90;;;;;;5044546;28;20211;-32
2023/05/09 10:39:07;;;;;;;4.65;2.67;;;18.80;99.90;;;;;;5045572;28;20652;-32
2023/05/09 10:41:40;;;;;;;5.10;3.05;;;18.90;99.90;;;;;;5045393;28;20354;-32
2023/05/09 10:44:07;;;;;;;2.88;2.35;;;18.90;99.90;;;;;;5043687;28;20294;-32
2023/05/09 10:46:37;;;;;;;4.32;2.70;;;18.80;99.90;;;;;;5027460;28;20230;-32
2023/05/09 10:49:06;;;;;;;3.75;2.55;;;18.80;99.90;;;;;;5044978;28;20216;-33
2023/05/09 10:51:40;;;;;;;3.55;2.60;;;18.80;99.90;;;;;;5040371;28;20229;-33
2023/05/09 10:54:25;;;;;;;2.55;2.22;;;18.80;99.90;;;;;;5025303;28;20292;-32
2023/05/09 10:57:05;;;;;;;9.07;3.30;;;18.80;99.90;;;;;;5024959;28;20319;-33
2023/05/09 10:59:45;;;;;;;19.58;4.32;;;18.80;99.90;;;;;;5040793;28;20234;-32
2023/05/09 11:02:17;;;;;;;6.45;2.97;;;18.80;99.90;;;;;;5023795;28;20292;-33
2023/05/09 11:05:06;;;;;;;3.58;2.95;;;18.80;99.90;;;;;;5025134;28;20249;-33
2023/05/09 11:07:38;;;;;;;5.13;2.92;;;18.80;99.90;;;;;;5025533;28;20690;-33
2023/05/09 11:10:08;;;;;;;2.95;2.40;;;18.80;99.90;;;;;;5025026;28;20203;-33
2023/05/09 11:12:53;;;;;;;5.47;3.05;;;18.80;99.90;;;;;;5025137;28;20228;-33
2023/05/09 11:15:25;;;;;;;6.18;2.95;;;18.80;99.90;;;;;;5027899;28;20212;-32
2023/05/09 11:18:11;;;;;;;11.00;3.78;;;18.80;99.90;;;;;;5044735;28;20665;-33
2023/05/09 11:20:44;;;;;;;16.65;4.57;;;18.80;99.90;;;;;;5044845;28;20206;-33
2023/05/09 11:23:24;;;;;;;5.43;3.20;;;18.80;99.90;;;;;;5043216;28;20250;-33
2023/05/09 11:25:52;;;;;;;4.55;2.78;;;18.80;99.90;;;;;;5044705;28;20216;-32
2023/05/09 11:28:27;;;;;;;8.00;3.45;;;18.80;99.90;;;;;;5043416;28;20258;-33
2023/05/09 11:31:08;;;;;;;5.55;2.75;;;18.80;99.90;;;;;;5044469;28;20273;-32
2023/05/09 11:33:37;;;;;;;5.30;3.20;;;18.80;99.90;;;;;;5044523;28;20215;-33
2023/05/09 11:36:17;;;;;;;5.18;2.97;;;18.80;99.90;;;;;;5043096;28;20215;-32
2023/05/09 11:38:46;;;;;;;5.63;2.65;;;18.80;99.90;;;;;;5027220;28;21004;-33
2023/05/09 11:41:18;;;;;;;5.05;2.72;;;18.80;99.90;;;;;;5042181;28;20703;-33
2023/05/09 11:43:48;;;;;;;3.70;2.70;;;18.80;99.90;;;;;;5044594;28;20303;-32
2023/05/09 11:46:15;;;;;;;4.93;2.78;;;18.80;99.90;;;;;;5042952;28;20228;-33
2023/05/09 11:48:47;;;;;;;4.32;3.00;;;18.80;99.90;;;;;;5044132;28;20762;-33
2023/05/09 11:51:19;;;;;;;2.83;2.38;;;18.80;99.90;;;;;;5044888;28;20218;-32
2023/05/09 11:53:52;;;;;;;3.53;2.30;;;18.80;99.90;;;;;;5043254;28;20299;-32
2023/05/09 11:56:22;;;;;;;2.80;2.53;;;18.80;99.90;;;;;;5043353;28;20326;-32
2023/05/09 11:58:54;;;;;;;4.00;2.53;;;18.80;99.90;;;;;;5027016;28;20238;-33
2023/05/09 12:01:22;;;;;;;2.90;2.53;;;18.80;99.90;;;;;;5027181;28;20211;-32
2023/05/09 12:03:50;;;;;;;5.65;2.63;;;18.80;99.90;;;;;;5043521;28;20633;-33
2023/05/09 12:06:23;;;;;;;4.50;2.60;;;18.80;99.90;;;;;;5043368;28;20257;-33
2023/05/09 12:08:56;;;;;;;3.65;3.15;;;18.80;99.90;;;;;;5044578;28;20216;-32
2023/05/09 12:11:31;;;;;;;3.25;2.40;;;18.80;99.90;;;;;;5043452;28;20204;-32
2023/05/09 12:14:01;;;;;;;5.35;3.10;;;18.80;99.90;;;;;;5042678;28;20200;-33
2023/05/09 12:16:28;;;;;;;7.28;3.38;;;18.80;99.90;;;;;;5044538;28;20215;-33
2023/05/09 12:18:58;;;;;;;4.60;2.90;;;18.80;99.90;;;;;;5026627;28;20204;-33
2023/05/09 12:21:32;;;;;;;4.65;2.80;;;18.80;99.90;;;;;;5043202;28;20196;-33
2023/05/09 12:23:59;;;;;;;4.95;3.13;;;18.80;99.90;;;;;;5042945;28;20304;-33
2023/05/09 12:26:27;;;;;;;3.60;3.08;;;18.70;99.90;;;;;;5042656;28;20259;-33
2023/05/09 12:28:54;;;;;;;3.25;2.75;;;18.70;99.90;;;;;;5042968;28;20479;-33
2023/05/09 12:31:21;;;;;;;2.55;2.35;;;18.70;99.90;;;;;;5042105;28;20284;-33
2023/05/09 12:33:51;;;;;;;4.57;2.63;;;18.70;99.90;;;;;;5048168;28;20536;-33
2023/05/09 12:36:23;;;;;;;3.35;2.58;;;18.70;99.90;;;;;;5048191;28;20732;-33
2023/05/09 12:38:54;;;;;;;2.63;2.42;;;18.70;99.90;;;;;;5047787;28;20196;-33
2023/05/09 12:41:23;;;;;;;4.00;2.78;;;18.70;99.90;;;;;;5047749;28;20204;-33
2023/05/09 12:43:56;;;;;;;4.53;2.92;;;18.70;99.90;;;;;;5047498;28;20254;-33
2023/05/09 12:46:26;;;;;;;6.47;2.65;;;18.70;99.90;;;;;;5047751;28;20232;-32
2023/05/09 12:48:53;;;;;;;4.80;3.00;;;18.70;99.90;;;;;;5046773;28;20223;-32
2023/05/09 12:51:21;;;;;;;3.38;2.92;;;18.70;99.90;;;;;;5047643;28;20228;-33
2023/05/09 12:53:51;;;;;;;3.25;2.90;;;18.70;99.90;;;;;;5047679;28;20291;-33
2023/05/09 12:56:22;;;;;;;3.47;2.42;;;18.70;99.90;;;;;;5030143;28;20778;-33
2023/05/09 12:58:53;;;;;;;3.38;2.60;;;18.70;99.90;;;;;;5045977;28;20590;-33
2023/05/09 13:01:26;;;;;;;3.13;2.10;;;18.70;99.90;;;;;;5047508;28;20319;-33